Dernières infos :  

11/05/2017  Mise à jour des tableaux d'analyses décadaires : rubrique climatologie
03/05/2017 Mise en ligne de la synthèse climatologique d'Avril 2017 : 
CLIQUEZ ICI
01/05/2017  Mise à jour des tableaux d'analyses décadaires, mensuelles et annuelles : rubrique climatologie   

Si l'entête du tableau ne s'affiche pas correctement, => actualisez la page (F5 avec Internet Explorer, Chrome...).
Utilisez l'ascenseur sur la droite des lignes du tableau pour faire défiler verticalement les jours du mois.

TABLEAU DES DONNEES COMPLETES NOAA DE JANVIER 2016

DATE TEMPERATURE
sous abri
TEMPARATURE 
au sol
VENT  et  Indice de Refroidissement Eolien  PRECIPITATIONS (en mm/m2)
et Intensité
PRESSION ATMOSPHERIQUE (en hPa) HUMIDITE de l'AIR RADIATIONS SOLAIRES (en W/m2)
Mini Moy. Maxi Mini Moy. Maxi Moyen Rafale I.R.E.
Minii
Précip. jour Cumul mois Intensité Maxi Mini Moy. Maxi Mini Moy. Maxi Pic maxi du jour Total jour
01/01/2016 1.6° 4.1° 7.9° 1.7° 3.9° 7.2° 2.7km/h dir ONO 24.1km/h dir S 0.4° 0.2 0.2 1015.3 1022.5 1026.7 95% 96.3% 97% 116 5 579
02/01/2016 6.1° 8.3° 9.8° 4.4° 7.7° 9.4° 5.5km/h dir S 27.4km/h dir SSE 4.9° 13.4 13.6 17.8mm/h 1011.6 1014 1015.6 88% 93.9% 96% 109 3 836
03/01/2016 4.4° 6.4° 8.1° 1.1° 5.9° 9.4° 9km/h dir S 54.7km/h dir S 1.4° 10.6 24.2 7.2mm/h 996.8 1007.5 1015.5 73% 89.4% 96% 255 8 677
04/01/2016 5.9° 7.8° 11.1° 7.3° 13.9° 10.3km/h dir S 49.9km/h dir S 1.8° 5.8 30 4.2mm/h 995.6 996.9 998.3 70% 86.5% 93% 540 10 177
05/01/2016 6.4° 7.8° 11.3° 7.1° 13.3° 6.8km/h dir S 24.1km/h dir SSO 4.7° 1 31 5.2mm/h 995.7 997.9 999.9 63% 83% 95% 566 10 669
06/01/2016 4.9° 6.1° 7.1° 3.9° 5.6° 7.2° 6.6km/h dir S 24.1km/h dir S 2.9° 5.6 36.6 4.4mm/h 999.1 1001.5 1004.6 78% 87.8% 95% 169 5 309
07/01/2016 4.6° 6.4° 9.1° 2.2° 5.7° 10° 9.2km/h dir S 45.1km/h dir S 10.6 47.2 14.8mm/h 996.9 1001.9 1008.3 86% 92.5% 95% 316 3 981
08/01/2016 4.7° 7.8° 12.3° 3.9° 7.4° 11.7° 5.1km/h dir S 43.5km/h dir S 3.8° 5.8 53 9.2mm/h 1001.4 1004.8 1008.2 78% 91.2% 96% 123 3 872
09/01/2016 8.2° 9.4° 11.9° 8.7° 12.2° 3.4km/h dir S 27.4km/h dir S 6.8° 15.6 68.6 4.6mm/h 1000.5 1002.8 1004.5 90% 95% 97% 253 8 394
10/01/2016 8.9° 11.4° 6.1° 8.3° 11.7° 8.5km/h dir S 37km/h dir S 5.2° 11.6 80.2 8.8mm/h 997 999.9 1001.8 83% 91.2% 95% 311 6 983
11/01/2016 6.9° 9.1° 13.1° 5.6° 8.7° 16.7° 10.8km/h dir SSO 51.5km/h dir OSO 4.5° 4.8 85 5.2mm/h 991.5 996.4 1001.8 54% 80.1% 96% 580 18 999
12/01/2016 3.8° 7.2° 9.6° 2.2° 6.5° 12.2° 9.5km/h dir SSO 43.5km/h dir SO 2.4° 4 89 9mm/h 1001.6 1008.4 1017.1 68% 79.7% 92% 385 8 685
13/01/2016 1.7° 4.8° 7.6° -1.1° 3.9° 11.1° 5km/h dir S 20.9km/h dir SSO 1.3° 0.2 89.2 1017.1 1021.7 1024.7 69% 79.7% 90% 420 13 810
14/01/2016 -0.9° 2.4° 5.1° -3.3° 1.6° 5.6° 5.1km/h dir S 24.1km/h dir SO -2.4° 3.2 92.4 1.8mm/h 1011.2 1014.1 1019.4 83% 91% 95% 169 5 703
15/01/2016 -0.8° 2.2° 6.1° -2.8° 1.8° 11.1° 3.1km/h dir O 22.5km/h dir OSO -1.4° 0.4 92.8 1016.8 1019.5 1021.9 64% 87.7% 95% 450 18 145
16/01/2016 0.1° 1.4° 3.1° -1.7° 0.8° 5.6° 4.2km/h dir NNO 20.9km/h dir NO -1.6° 5 97.8 3mm/h 1021.6 1025.6 1028.4 88% 92.9% 95% 550 6 938
17/01/2016 -3.1° 0.9° 2.8° -4.4° 0.4° 3.9° 1.4km/h dir ENE 11.3km/h dir N -4° 1.4 99.2 0.8mm/h 1024.1 1026.7 1028.7 89% 93.3% 96% 200 7 713
18/01/2016 -4.2° -0.1° 2.1° -6.1° -0.1° 1.7° 5km/h dir S 32.2km/h dir S -4.3° 0.8 100 1012.9 1014.9 1018.8 87% 92.4% 95% 190 10 081
19/01/2016 1.9° 5.8° 1.1° 3.6° 6.7° 7.6km/h dir S 25.7km/h dir S -1.4° 0.4 100.4 1013 1014.3 1015.4 84% 89.3% 94% 169 8 463
20/01/2016 5.2° 2.2° 3.9° 6.1° 3.7km/h dir N 16.1km/h dir NE 0.4° 2 102.4 1.6mm/h 1014.9 1017.4 1020.8 89% 94.2% 96% 185 6 606
21/01/2016 -0.1° 1.3° 3.1° -0.6° 1.5° 2.8° 5.1km/h dir N 16.1km/h dir NNE -1.9° 0 102.4 1020.7 1023.5 1027.3 92% 94.6% 96% 167 7 794
22/01/2016 -0.3° 4.3° 10.3° -0.6° 4.7° 15° 6.3km/h dir S 35.4km/h dir SO -2.2° 2.4 104.8 1.4mm/h 1027.1 1028.1 1030 66% 86.7% 96% 455 22 283
23/01/2016 2.1° 7.1° 11.2° -1.7° 6.6° 18.3° 4km/h dir NNO 22.5km/h dir S 1.4 106.2 1030 1034.1 1036.3 76% 91.5% 96% 606 19 865
24/01/2016 -0.1° 4.6° 11.9° -2.2° 4.3° 18.3° 2.9km/h dir SSE 12.9km/h dir S -1.2° 0.2 106.4 1032.7 1034.4 1035.9 69% 89.7% 96% 425 26 227
25/01/2016 0.7° 6.9° 13.9° -2.2° 5.7° 17.2° 6.8km/h dir S 38.6km/h dir SSO -0.7° 0.2 106.6 1029.3 1030.4 1032.6 67% 84.4% 95% 431 26 843
26/01/2016 3.7° 7.7° 15.1° 0.6° 6.6° 18.9° 3.9km/h dir SSE 19.3km/h dir S 2.2° 0 106.6 1027.7 1030 1031.8 64% 86.4% 95% 417 24 611
27/01/2016 3.7° 8.3° 12.6° 0.6° 7.5° 14.4° 7.2km/h dir S 33.8km/h dir SSO 2.7° 0 106.6 1023.6 1026.4 1028.8 78% 88.1% 95% 404 16 841
28/01/2016 7.8° 10.8° 14.6° 3.3° 9.9° 19.4° 5.8km/h dir S 27.4km/h dir SSO 7.5° 0 106.6 1024.2 1026 1029.4 74% 84.1% 94% 450 18 668
29/01/2016 1.3° 7.9° 11.6° -1.1° 7.1° 17.2° 3.4km/h dir E 16.1km/h dir ENE 1.1° 0.4 107 1029.4 1031.8 1033.4 77% 90.8% 96% 584 16 637
30/01/2016 1.3° 7.3° 11.8° -0.6° 7.1° 15.6° 8.9km/h dir S 51.5km/h dir S 0.3° 0.2 107.2 1020.8 1026 1032.1 67% 85.5% 96% 591 17 320
31/01/2016 9.1° 10.3° 11.3° 8.3° 9.8° 11.1° 11.7km/h dir S 38.6km/h dir S 5.9° 9.6 116.8 2.4mm/h 1017.9 1020.5 1025.7 75% 91.6% 96% 107 5 074

RETOUR ACCUEIL


Date de création : 01/02/2016 : 21:06
Catégorie : ARCHIVES 2002 à 2016 - ANNEES 2010 à 2019 - ANNEE 2016 - JANVIER 2016
Page lue 967 fois


Réactions à cet article

Personne n'a encore laissé de commentaire.
Soyez donc le premier !